createdAt,value
2023-04-22T00:00:22.743Z,9.29
2023-04-22T00:01:54.639Z,9.26
2023-04-22T00:03:27.211Z,9.24
2023-04-22T00:04:59.555Z,9.23
2023-04-22T00:06:32.201Z,9.20
2023-04-22T00:08:04.535Z,9.19
2023-04-22T00:09:36.877Z,9.15
2023-04-22T00:11:08.868Z,9.13
2023-04-22T00:12:40.685Z,9.08
2023-04-22T00:14:12.504Z,9.05
2023-04-22T00:15:44.585Z,9.00
2023-04-22T00:17:16.414Z,8.95
2023-04-22T00:18:48.675Z,8.93
2023-04-22T00:20:24.185Z,8.87
2023-04-22T00:26:18.133Z,8.69
2023-04-22T00:27:50.029Z,8.65
2023-04-22T00:29:21.907Z,8.61
2023-04-22T00:30:53.993Z,8.59
2023-04-22T00:32:26.978Z,8.55
2023-04-22T00:33:58.770Z,8.51
2023-04-22T00:35:30.661Z,8.47
2023-04-22T00:37:02.557Z,8.44
2023-04-22T00:38:34.350Z,8.44
2023-04-22T00:40:07.158Z,8.41
2023-04-22T00:41:39.918Z,8.38
2023-04-22T00:43:13.424Z,8.36
2023-04-22T00:44:47.328Z,8.34
2023-04-22T00:46:20.829Z,8.32
2023-04-22T00:47:53.183Z,8.30
2023-04-22T00:49:27.550Z,8.28
2023-04-22T00:50:59.331Z,8.28
2023-04-22T00:52:31.285Z,8.26
2023-04-22T00:54:03.714Z,8.24
2023-04-22T00:55:35.767Z,8.25
2023-04-22T00:57:07.664Z,8.28
2023-04-22T00:58:39.716Z,8.26
2023-04-22T01:00:12.245Z,8.26
2023-04-22T01:01:44.517Z,8.29
2023-04-22T01:03:17.096Z,8.30
2023-04-22T01:04:49.385Z,8.31
2023-04-22T01:06:23.093Z,8.31
2023-04-22T01:07:55.060Z,8.33
2023-04-22T01:09:26.844Z,8.34
2023-04-22T01:10:59.156Z,8.33
2023-04-22T01:12:30.938Z,8.37
2023-04-22T01:14:04.057Z,8.41
2023-04-22T01:15:35.971Z,8.41
2023-04-22T01:17:10.281Z,8.41
2023-04-22T01:18:42.300Z,8.44
2023-04-22T01:20:14.253Z,8.46
2023-04-22T01:21:47.431Z,8.50
2023-04-22T01:23:20.382Z,8.52
2023-04-22T01:24:52.574Z,8.54
2023-04-22T01:26:26.099Z,8.55
2023-04-22T01:27:58.587Z,8.55
2023-04-22T01:29:30.672Z,8.58
2023-04-22T01:31:02.596Z,8.60
2023-04-22T01:32:35.195Z,8.64
2023-04-22T01:34:07.247Z,8.64
2023-04-22T01:35:40.230Z,8.66
2023-04-22T01:37:12.087Z,8.67
2023-04-22T01:38:44.407Z,8.67
2023-04-22T01:40:19.894Z,8.67
2023-04-22T01:41:52.174Z,8.70
2023-04-22T01:43:24.113Z,8.68
2023-04-22T01:44:55.928Z,8.67
2023-04-22T01:46:27.864Z,8.68
2023-04-22T01:47:59.929Z,8.66
2023-04-22T01:49:31.794Z,8.66
2023-04-22T01:51:03.959Z,8.65
2023-04-22T01:52:35.790Z,8.62
2023-04-22T01:54:08.654Z,8.60
2023-04-22T01:55:40.512Z,8.59
2023-04-22T01:57:14.459Z,8.55
2023-04-22T01:58:46.460Z,8.54
2023-04-22T02:00:19.406Z,8.48
2023-04-22T02:01:53.085Z,8.46
2023-04-22T02:03:25.635Z,8.45
2023-04-22T02:04:59.147Z,8.44
2023-04-22T02:06:32.360Z,8.41
2023-04-22T02:08:05.150Z,8.39
2023-04-22T02:09:37.310Z,8.37
2023-04-22T02:11:09.307Z,8.36
2023-04-22T02:12:41.172Z,8.33
2023-04-22T02:14:13.019Z,8.32
2023-04-22T02:15:44.961Z,8.30
2023-04-22T02:17:17.929Z,8.30
2023-04-22T02:18:51.211Z,8.28
2023-04-22T02:20:23.006Z,8.28
2023-04-22T02:21:55.932Z,8.27
2023-04-22T02:23:28.005Z,8.27
2023-04-22T02:24:59.872Z,8.26
2023-04-22T02:26:31.836Z,8.24
2023-04-22T02:28:03.876Z,8.24
2023-04-22T02:29:36.461Z,8.21
2023-04-22T02:31:08.509Z,8.22
2023-04-22T02:32:40.632Z,8.21
2023-04-22T02:34:12.457Z,8.20
2023-04-22T02:35:44.295Z,8.19
2023-04-22T02:37:23.065Z,8.17
2023-04-22T02:38:55.023Z,8.14
2023-04-22T02:40:26.999Z,8.13
2023-04-22T02:41:58.852Z,8.10
2023-04-22T02:43:31.065Z,8.09
2023-04-22T02:45:03.230Z,8.07
2023-04-22T02:46:36.369Z,8.05
2023-04-22T02:48:08.402Z,8.02
2023-04-22T02:49:41.467Z,8.03
2023-04-22T02:51:14.523Z,8.00
2023-04-22T02:52:46.598Z,8.00
2023-04-22T02:54:18.699Z,7.98
2023-04-22T02:55:52.555Z,7.95
2023-04-22T02:57:24.382Z,7.94
2023-04-22T02:58:56.211Z,7.93
2023-04-22T03:00:29.624Z,7.92
2023-04-22T03:02:01.692Z,7.93
2023-04-22T03:03:47.319Z,7.94
2023-04-22T03:05:25.284Z,7.94
2023-04-22T03:06:57.709Z,7.94
2023-04-22T03:08:29.516Z,7.94
2023-04-22T03:10:01.504Z,7.94
2023-04-22T03:11:33.377Z,7.92
2023-04-22T03:13:05.208Z,7.89
2023-04-22T03:14:37.141Z,7.92
2023-04-22T03:16:09.581Z,7.91
2023-04-22T03:17:43.249Z,7.90
2023-04-22T03:19:18.193Z,7.88
2023-04-22T03:20:50.229Z,7.91
2023-04-22T03:22:23.162Z,7.91
2023-04-22T03:23:57.051Z,7.92
2023-04-22T03:25:28.902Z,7.90
2023-04-22T03:27:02.327Z,7.91
2023-04-22T03:28:34.642Z,7.91
2023-04-22T03:30:07.785Z,7.92
2023-04-22T03:31:40.419Z,7.92
2023-04-22T03:33:12.464Z,7.95
2023-04-22T03:34:49.127Z,7.92
2023-04-22T03:36:21.633Z,7.94
2023-04-22T03:37:54.152Z,7.97
2023-04-22T03:39:31.692Z,7.98
2023-04-22T03:41:03.589Z,7.98
2023-04-22T03:42:43.603Z,7.98
2023-04-22T03:44:16.401Z,8.00
2023-04-22T03:45:51.401Z,8.00
2023-04-22T03:47:28.304Z,7.99
2023-04-22T03:49:06.771Z,7.98
2023-04-22T03:50:40.165Z,7.97
2023-04-22T03:52:12.504Z,7.98
2023-04-22T03:53:50.702Z,7.96
2023-04-22T03:55:25.693Z,7.95
2023-04-22T03:56:58.839Z,7.93
2023-04-22T03:58:31.749Z,7.90
2023-04-22T04:00:06.245Z,7.86
2023-04-22T04:01:47.066Z,7.81
2023-04-22T04:03:21.111Z,7.79
2023-04-22T04:04:56.566Z,7.76
2023-04-22T04:06:28.768Z,7.73
2023-04-22T04:08:00.611Z,7.72
2023-04-22T04:09:32.690Z,7.72
2023-04-22T04:11:04.621Z,7.71
2023-04-22T04:12:36.662Z,7.70
2023-04-22T04:14:08.495Z,7.69
2023-04-22T04:16:07.140Z,7.68
2023-04-22T04:17:39.958Z,7.67
2023-04-22T04:19:12.089Z,7.63
2023-04-22T04:20:44.060Z,7.63
2023-04-22T04:22:15.922Z,7.62
2023-04-22T04:23:56.119Z,7.63
2023-04-22T04:25:37.895Z,7.62
2023-04-22T04:27:14.076Z,7.62
2023-04-22T04:28:52.498Z,7.62
2023-04-22T04:30:25.840Z,7.62
2023-04-22T04:31:59.794Z,7.60
2023-04-22T04:33:33.232Z,7.60
2023-04-22T04:35:06.326Z,7.62
2023-04-22T04:36:40.076Z,7.62
2023-04-22T04:38:26.515Z,7.62
2023-04-22T04:40:01.921Z,7.62
2023-04-22T04:41:46.465Z,7.59
2023-04-22T04:43:18.867Z,7.60
2023-04-22T04:44:59.731Z,7.60
2023-04-22T04:46:32.657Z,7.59
2023-04-22T04:48:07.363Z,7.60
2023-04-22T04:49:42.372Z,7.59
2023-04-22T04:51:15.203Z,7.62
2023-04-22T04:52:55.015Z,7.65
2023-04-22T04:54:32.403Z,7.69
2023-04-22T04:56:05.372Z,7.69
2023-04-22T04:57:38.458Z,7.72
2023-04-22T04:59:11.034Z,7.77
2023-04-22T05:00:43.996Z,7.77
2023-04-22T05:02:16.886Z,7.79
2023-04-22T05:03:49.099Z,7.80
2023-04-22T05:05:22.932Z,7.80
2023-04-22T05:06:55.226Z,7.85
2023-04-22T05:08:27.350Z,7.89
2023-04-22T05:10:06.611Z,7.93
2023-04-22T05:11:38.505Z,7.94
2023-04-22T05:13:17.081Z,7.97
2023-04-22T05:14:51.168Z,8.00
2023-04-22T05:16:23.126Z,8.03
2023-04-22T05:17:55.193Z,8.07
2023-04-22T05:19:27.100Z,8.10
2023-04-22T05:21:00.124Z,8.14
2023-04-22T05:22:31.987Z,8.15
2023-04-22T05:24:04.057Z,8.19
2023-04-22T05:25:36.029Z,8.25
2023-04-22T05:27:13.458Z,8.33
2023-04-22T05:28:45.868Z,8.48
2023-04-22T05:30:17.864Z,8.64
2023-04-22T05:31:49.738Z,8.86
2023-04-22T05:33:21.635Z,9.02
2023-04-22T05:34:54.487Z,9.30
2023-04-22T05:36:30.591Z,9.61
2023-04-22T05:38:03.342Z,9.92
2023-04-22T05:39:37.121Z,10.27
2023-04-22T05:41:12.291Z,10.57
2023-04-22T05:42:44.145Z,10.89
2023-04-22T05:44:17.739Z,11.18
2023-04-22T05:45:49.971Z,11.45
2023-04-22T05:47:23.163Z,11.75
2023-04-22T05:48:56.332Z,12.01
2023-04-22T05:50:46.870Z,12.28
2023-04-22T05:52:20.126Z,12.49
2023-04-22T05:54:01.046Z,12.68
2023-04-22T05:55:32.948Z,12.85
2023-04-22T05:57:04.922Z,13.01
2023-04-22T05:58:37.871Z,13.16
2023-04-22T06:00:19.306Z,13.35
2023-04-22T06:02:03.693Z,13.54
2023-04-22T06:03:35.707Z,13.72
2023-04-22T06:05:08.547Z,13.87
2023-04-22T06:06:40.597Z,13.99
2023-04-22T06:08:12.449Z,14.03
2023-04-22T06:09:44.669Z,14.09
2023-04-22T06:11:16.474Z,14.05
2023-04-22T06:12:48.305Z,14.05
2023-04-22T06:14:20.275Z,13.99
2023-04-22T06:15:52.807Z,13.92
2023-04-22T06:17:24.794Z,13.83
2023-04-22T06:18:57.760Z,13.74
2023-04-22T06:20:32.821Z,13.64
2023-04-22T06:22:04.672Z,13.56
2023-04-22T06:23:36.516Z,13.48
2023-04-22T06:25:11.352Z,13.38
2023-04-22T06:26:43.285Z,13.31
2023-04-22T06:28:15.257Z,13.24
2023-04-22T06:29:47.598Z,13.17
2023-04-22T06:31:21.160Z,13.14
2023-04-22T06:32:55.324Z,13.08
2023-04-22T06:34:27.216Z,13.06
2023-04-22T06:35:59.464Z,13.04
2023-04-22T06:37:32.209Z,13.03
2023-04-22T06:39:05.972Z,13.00
2023-04-22T06:40:46.270Z,12.98
2023-04-22T06:42:41.999Z,12.98
2023-04-22T06:44:22.928Z,13.01
2023-04-22T06:46:07.482Z,13.01
2023-04-22T06:48:02.555Z,13.01
2023-04-22T06:49:50.521Z,13.01
2023-04-22T06:51:28.944Z,13.06
2023-04-22T06:53:01.047Z,13.10
2023-04-22T06:54:32.993Z,13.12
2023-04-22T06:56:05.979Z,13.16
2023-04-22T06:57:37.854Z,13.20
2023-04-22T06:59:09.714Z,13.25
2023-04-22T07:00:41.568Z,13.28
2023-04-22T07:02:13.693Z,13.32
2023-04-22T07:03:46.113Z,13.34
2023-04-22T07:05:20.142Z,13.40
2023-04-22T07:06:52.740Z,13.46
2023-04-22T07:08:24.618Z,13.49
2023-04-22T07:09:56.434Z,13.51
2023-04-22T07:11:32.028Z,13.58
2023-04-22T07:13:08.348Z,13.61
2023-04-22T07:14:46.962Z,13.68
2023-04-22T07:16:19.561Z,13.75
2023-04-22T07:17:51.432Z,13.83
2023-04-22T07:19:23.261Z,13.89
2023-04-22T07:20:55.105Z,13.94
2023-04-22T07:22:26.926Z,14.01
2023-04-22T07:23:58.937Z,14.12
2023-04-22T07:25:30.976Z,14.22
2023-04-22T07:27:03.392Z,14.32
2023-04-22T07:28:35.243Z,14.42
2023-04-22T07:30:08.515Z,14.53
2023-04-22T07:31:40.415Z,14.69
2023-04-22T07:33:12.943Z,14.91
2023-04-22T07:34:44.935Z,15.14
2023-04-22T07:36:16.755Z,15.35
2023-04-22T07:37:48.673Z,15.57
2023-04-22T07:39:20.452Z,15.76
2023-04-22T07:40:52.438Z,15.92
2023-04-22T07:42:24.833Z,16.06
2023-04-22T07:43:56.819Z,16.19
2023-04-22T07:45:28.791Z,16.24
2023-04-22T07:47:00.770Z,16.34
2023-04-22T07:48:32.608Z,16.44
2023-04-22T07:50:05.015Z,16.57
2023-04-22T07:51:36.827Z,16.69
2023-04-22T07:53:10.481Z,16.85
2023-04-22T07:54:42.306Z,16.99
2023-04-22T07:56:14.154Z,17.15
2023-04-22T07:57:46.114Z,17.36
2023-04-22T07:59:18.129Z,17.55
2023-04-22T08:00:49.950Z,17.78
2023-04-22T08:02:22.217Z,17.99
2023-04-22T08:03:54.296Z,18.26
2023-04-22T08:05:26.508Z,18.53
2023-04-22T08:06:58.364Z,18.72
2023-04-22T08:08:30.396Z,18.92
2023-04-22T08:10:02.375Z,19.10
2023-04-22T08:11:34.285Z,19.26
2023-04-22T08:13:06.351Z,19.48
2023-04-22T08:14:38.274Z,19.62
2023-04-22T08:16:10.094Z,19.78
2023-04-22T08:17:42.082Z,19.93
2023-04-22T08:19:13.907Z,20.08
2023-04-22T08:20:46.414Z,20.24
2023-04-22T08:22:19.361Z,20.37
2023-04-22T08:23:52.304Z,20.50
2023-04-22T08:25:24.102Z,20.62
2023-04-22T08:26:56.887Z,20.81
2023-04-22T08:28:28.727Z,20.98
2023-04-22T08:30:00.713Z,21.11
2023-04-22T08:31:32.609Z,21.21
2023-04-22T08:33:04.585Z,21.31
2023-04-22T08:34:37.256Z,21.50
2023-04-22T08:36:10.074Z,21.64
2023-04-22T08:37:42.213Z,21.76
2023-04-22T08:39:14.184Z,21.85
2023-04-22T08:40:46.711Z,21.96
2023-04-22T08:42:20.636Z,22.13
2023-04-22T08:43:56.133Z,22.20
2023-04-22T08:45:28.875Z,22.30
2023-04-22T08:47:03.050Z,22.41
2023-04-22T08:48:35.021Z,22.50
2023-04-22T08:50:09.852Z,22.54
2023-04-22T08:51:43.022Z,22.68
2023-04-22T08:53:15.132Z,22.74
2023-04-22T08:54:46.978Z,22.81
2023-04-22T08:56:18.868Z,22.93
2023-04-22T08:57:50.896Z,23.03
2023-04-22T08:59:23.190Z,23.12
2023-04-22T09:00:55.680Z,23.19
2023-04-22T09:02:32.079Z,23.28
2023-04-22T09:04:05.211Z,23.38
2023-04-22T09:05:39.846Z,23.46
2023-04-22T09:07:12.330Z,23.46
2023-04-22T09:08:44.156Z,23.49
2023-04-22T09:10:17.693Z,23.58
2023-04-22T09:11:49.715Z,23.61
2023-04-22T09:13:23.198Z,23.60
2023-04-22T09:14:56.444Z,23.67
2023-04-22T09:16:31.124Z,23.68
2023-04-22T09:18:04.594Z,23.68
2023-04-22T09:19:36.609Z,23.59
2023-04-22T09:21:08.926Z,23.57
2023-04-22T09:22:46.148Z,23.66
2023-04-22T09:24:18.288Z,23.67
2023-04-22T09:25:50.429Z,23.66
2023-04-22T09:27:25.496Z,23.70
2023-04-22T09:28:59.095Z,23.69
2023-04-22T09:30:33.646Z,23.69
2023-04-22T09:32:12.099Z,23.69
2023-04-22T09:33:55.107Z,23.71
2023-04-22T09:35:35.093Z,23.63
2023-04-22T09:37:07.316Z,23.64
2023-04-22T09:38:39.183Z,23.65
2023-04-22T09:40:16.222Z,23.61
2023-04-22T09:41:54.962Z,23.66
2023-04-22T09:43:26.979Z,23.59
2023-04-22T09:45:01.268Z,23.61
2023-04-22T09:46:35.064Z,23.61
2023-04-22T09:48:11.913Z,23.43
2023-04-22T09:49:47.077Z,23.37
2023-04-22T09:51:19.366Z,23.35
2023-04-22T09:53:03.198Z,23.28
2023-04-22T09:54:37.610Z,23.27
2023-04-22T09:56:09.520Z,23.28
2023-04-22T09:57:41.339Z,23.28
2023-04-22T09:59:13.139Z,23.27
2023-04-22T10:00:48.960Z,23.17
2023-04-22T10:02:29.208Z,23.15
2023-04-22T10:04:03.910Z,23.18
2023-04-22T10:05:39.026Z,23.19
2023-04-22T10:07:10.935Z,23.20
2023-04-22T10:08:44.778Z,23.22
2023-04-22T10:10:16.650Z,23.16
2023-04-22T10:11:50.941Z,23.18
2023-04-22T10:13:22.792Z,23.20
2023-04-22T10:14:54.603Z,23.21
2023-04-22T10:16:28.724Z,23.21
2023-04-22T10:18:02.176Z,23.18
2023-04-22T10:19:35.459Z,23.23
2023-04-22T10:21:07.517Z,23.25
2023-04-22T10:22:43.025Z,23.24
2023-04-22T10:24:19.138Z,23.34
2023-04-22T10:25:54.681Z,23.38
2023-04-22T10:27:26.701Z,23.45
2023-04-22T10:28:58.575Z,23.48
2023-04-22T10:30:32.737Z,23.55
2023-04-22T10:32:26.140Z,23.50
2023-04-22T10:34:13.283Z,23.54
2023-04-22T10:36:20.501Z,23.53
2023-04-22T10:37:52.819Z,23.65
2023-04-22T10:39:26.175Z,23.67
2023-04-22T10:41:01.620Z,23.70
2023-04-22T10:42:33.704Z,23.73
2023-04-22T10:44:08.761Z,23.79
2023-04-22T10:45:40.696Z,23.77
2023-04-22T10:47:12.588Z,23.85
2023-04-22T10:48:48.905Z,23.93
2023-04-22T10:50:32.936Z,23.93
2023-04-22T10:52:08.008Z,24.05
2023-04-22T10:53:40.967Z,24.08
2023-04-22T10:55:12.993Z,24.04
2023-04-22T10:57:02.290Z,24.05
2023-04-22T10:58:34.211Z,24.13
2023-04-22T11:00:22.454Z,24.10
2023-04-22T11:01:54.358Z,24.18
2023-04-22T11:03:30.828Z,24.18
2023-04-22T11:05:25.872Z,24.24
2023-04-22T11:07:18.264Z,24.26
2023-04-22T11:08:50.811Z,24.33
2023-04-22T11:10:45.455Z,24.35
2023-04-22T11:12:35.395Z,24.29
2023-04-22T11:14:09.332Z,24.37
2023-04-22T11:15:43.164Z,24.38
2023-04-22T11:17:15.039Z,24.38
2023-04-22T11:18:47.074Z,24.37
2023-04-22T11:20:19.195Z,24.42
2023-04-22T11:21:53.186Z,24.42
2023-04-22T11:23:28.844Z,24.40
2023-04-22T11:25:01.738Z,24.51
2023-04-22T11:26:35.585Z,24.56
2023-04-22T11:28:08.061Z,24.53
2023-04-22T11:29:40.300Z,24.49
2023-04-22T11:31:12.525Z,24.51
2023-04-22T11:32:49.831Z,24.52
2023-04-22T11:34:21.831Z,24.47
2023-04-22T11:35:53.726Z,24.47
2023-04-22T11:37:25.645Z,24.44
2023-04-22T11:38:57.694Z,24.46
2023-04-22T11:40:33.782Z,24.46
2023-04-22T11:42:07.146Z,24.47
2023-04-22T11:43:47.458Z,24.41
2023-04-22T11:45:19.248Z,24.42
2023-04-22T11:46:51.326Z,24.48
2023-04-22T11:48:23.724Z,24.43
2023-04-22T11:50:02.101Z,24.38
2023-04-22T11:51:33.982Z,24.40
2023-04-22T11:53:21.094Z,24.37
2023-04-22T11:54:53.069Z,24.38
2023-04-22T11:56:25.232Z,24.33
2023-04-22T11:58:02.282Z,24.34
2023-04-22T11:59:34.888Z,24.29
2023-04-22T12:01:06.758Z,24.25
2023-04-22T12:02:38.723Z,24.22
2023-04-22T12:04:11.258Z,24.19
2023-04-22T12:05:48.113Z,24.13
2023-04-22T12:07:19.959Z,24.08
2023-04-22T12:08:51.807Z,24.05
2023-04-22T12:10:23.829Z,24.04
2023-04-22T12:11:56.296Z,24.04
2023-04-22T12:13:33.218Z,24.01
2023-04-22T12:15:12.790Z,24.01
2023-04-22T12:16:45.751Z,23.99
2023-04-22T12:18:29.755Z,23.97
2023-04-22T12:20:01.762Z,24.00
2023-04-22T12:21:34.013Z,24.03
2023-04-22T12:23:06.328Z,24.04
2023-04-22T12:24:46.036Z,23.97
2023-04-22T12:26:20.128Z,24.02
2023-04-22T12:27:51.944Z,24.05
2023-04-22T12:29:32.595Z,24.07
2023-04-22T12:31:04.844Z,24.04
2023-04-22T12:32:36.797Z,24.06
2023-04-22T12:34:08.712Z,24.04
2023-04-22T12:35:41.054Z,24.10
2023-04-22T12:37:12.972Z,24.13
2023-04-22T12:38:44.880Z,24.17
2023-04-22T12:40:16.918Z,24.18
2023-04-22T12:41:51.185Z,24.18
2023-04-22T12:43:23.013Z,24.21
2023-04-22T12:44:54.969Z,24.13
2023-04-22T12:46:26.827Z,24.16
2023-04-22T12:47:58.771Z,24.15
2023-04-22T12:49:30.726Z,24.16
2023-04-22T12:51:02.975Z,24.16
2023-04-22T12:52:35.687Z,24.16
2023-04-22T12:54:07.489Z,24.14
2023-04-22T12:55:39.338Z,24.10
2023-04-22T12:57:12.167Z,24.09
2023-04-22T12:58:44.024Z,24.08
2023-04-22T13:00:16.440Z,24.04
2023-04-22T13:01:48.281Z,24.04
2023-04-22T13:03:20.323Z,24.05
2023-04-22T13:04:52.324Z,23.99
2023-04-22T13:06:24.215Z,24.01
2023-04-22T13:08:06.660Z,24.01
2023-04-22T13:09:40.087Z,24.00
2023-04-22T13:11:12.206Z,24.04
2023-04-22T13:12:44.341Z,24.05
2023-04-22T13:14:16.203Z,24.07
2023-04-22T13:15:53.819Z,24.03
2023-04-22T13:17:26.737Z,24.10
2023-04-22T13:18:58.566Z,24.14
2023-04-22T13:20:30.532Z,24.17
2023-04-22T13:22:02.744Z,24.20
2023-04-22T13:23:35.538Z,24.24
2023-04-22T13:25:08.673Z,24.29
2023-04-22T13:26:40.514Z,24.31
2023-04-22T13:28:12.330Z,24.37
2023-04-22T13:29:45.107Z,24.42
2023-04-22T13:31:16.972Z,24.42
2023-04-22T13:32:48.811Z,24.42
2023-04-22T13:34:20.746Z,24.46
2023-04-22T13:35:52.586Z,24.47
2023-04-22T13:37:24.437Z,24.50
2023-04-22T13:38:57.433Z,24.51
2023-04-22T13:40:29.377Z,24.58
2023-04-22T13:42:01.813Z,24.59
2023-04-22T13:43:33.619Z,24.65
2023-04-22T13:45:06.343Z,24.73
2023-04-22T13:46:39.054Z,24.78
2023-04-22T13:48:11.297Z,24.82
2023-04-22T13:49:43.084Z,24.84
2023-04-22T13:51:15.147Z,24.83
2023-04-22T13:52:48.321Z,24.87
2023-04-22T13:54:20.537Z,24.87
2023-04-22T13:55:52.343Z,24.92
2023-04-22T13:57:24.169Z,24.99
2023-04-22T13:58:55.983Z,25.01
2023-04-22T14:00:27.857Z,25.08
2023-04-22T14:01:59.710Z,25.16
2023-04-22T14:03:31.789Z,25.26
2023-04-22T14:05:05.667Z,25.35
2023-04-22T14:06:38.142Z,25.44
2023-04-22T14:08:09.930Z,25.57
2023-04-22T14:09:42.174Z,25.61
2023-04-22T14:11:14.404Z,25.69
2023-04-22T14:12:47.557Z,25.79
2023-04-22T14:14:19.378Z,25.82
2023-04-22T14:15:51.236Z,25.91
2023-04-22T14:17:24.021Z,26.00
2023-04-22T14:18:56.132Z,26.06
2023-04-22T14:20:28.050Z,26.10
2023-04-22T14:21:59.926Z,26.15
2023-04-22T14:23:32.078Z,26.18
2023-04-22T14:25:06.561Z,26.29
2023-04-22T14:26:38.455Z,26.34
2023-04-22T14:28:10.473Z,26.38
2023-04-22T14:29:42.736Z,26.43
2023-04-22T14:31:15.395Z,26.52
2023-04-22T14:32:47.318Z,26.60
2023-04-22T14:34:19.150Z,26.69
2023-04-22T14:35:52.419Z,26.79
2023-04-22T14:37:24.276Z,26.88
2023-04-22T14:38:56.536Z,26.95
2023-04-22T14:40:29.448Z,27.00
2023-04-22T14:42:02.750Z,27.02
2023-04-22T14:43:34.767Z,27.05
2023-04-22T14:45:07.239Z,27.09
2023-04-22T14:46:39.213Z,27.04
2023-04-22T14:48:11.451Z,27.04
2023-04-22T14:49:43.350Z,27.04
2023-04-22T14:51:15.862Z,27.07
2023-04-22T14:52:47.663Z,27.07
2023-04-22T14:54:19.442Z,27.04
2023-04-22T14:55:51.341Z,27.02
2023-04-22T14:57:23.162Z,27.01
2023-04-22T14:58:54.943Z,26.95
2023-04-22T15:00:27.089Z,26.97
2023-04-22T15:01:59.358Z,26.95
2023-04-22T15:03:32.224Z,26.95
2023-04-22T15:05:04.461Z,26.92
2023-04-22T15:06:36.258Z,26.96
2023-04-22T15:08:08.054Z,26.90
2023-04-22T15:09:40.081Z,26.86
2023-04-22T15:11:12.082Z,26.80
2023-04-22T15:12:44.988Z,26.77
2023-04-22T15:14:17.443Z,26.75
2023-04-22T15:15:49.345Z,26.69
2023-04-22T15:17:21.507Z,26.63
2023-04-22T15:18:54.568Z,26.61
2023-04-22T15:20:26.396Z,26.56
2023-04-22T15:21:58.188Z,26.54
2023-04-22T15:23:29.975Z,26.55
2023-04-22T15:25:02.334Z,26.52
2023-04-22T15:26:37.519Z,26.46
2023-04-22T15:28:09.348Z,26.42
2023-04-22T15:29:45.355Z,26.43
2023-04-22T15:31:18.794Z,26.34
2023-04-22T15:32:50.683Z,26.32
2023-04-22T15:34:23.366Z,26.28
2023-04-22T15:35:55.149Z,26.26
2023-04-22T15:37:27.292Z,26.25
2023-04-22T15:38:59.601Z,26.20
2023-04-22T15:40:31.784Z,26.16
2023-04-22T15:42:03.717Z,26.12
2023-04-22T15:43:35.612Z,26.03
2023-04-22T15:45:08.086Z,25.98
2023-04-22T15:46:39.999Z,25.88
2023-04-22T15:48:11.827Z,25.76
2023-04-22T15:49:43.953Z,25.66
2023-04-22T15:51:17.127Z,25.55
2023-04-22T15:52:49.552Z,25.42
2023-04-22T15:54:21.403Z,25.30
2023-04-22T15:55:53.232Z,25.22
2023-04-22T15:57:25.030Z,25.16
2023-04-22T15:58:56.835Z,25.11
2023-04-22T16:00:28.872Z,25.03
2023-04-22T16:02:01.193Z,25.02
2023-04-22T16:03:33.977Z,24.92
2023-04-22T16:05:06.273Z,24.85
2023-04-22T16:06:38.617Z,24.78
2023-04-22T16:08:10.980Z,24.68
2023-04-22T16:09:43.558Z,24.62
2023-04-22T16:11:16.182Z,24.53
2023-04-22T16:12:48.193Z,24.41
2023-04-22T16:14:20.045Z,24.24
2023-04-22T16:15:51.900Z,24.08
2023-04-22T16:17:23.720Z,23.99
2023-04-22T16:18:55.900Z,23.93
2023-04-22T16:20:27.835Z,23.85
2023-04-22T16:21:59.723Z,23.78
2023-04-22T16:23:32.766Z,23.75
2023-04-22T16:25:05.401Z,23.65
2023-04-22T16:26:37.238Z,23.60
2023-04-22T16:28:12.000Z,23.55
2023-04-22T16:29:43.948Z,23.52
2023-04-22T16:31:18.242Z,23.48
2023-04-22T16:32:50.307Z,23.40
2023-04-22T16:34:22.171Z,23.26
2023-04-22T16:35:54.008Z,23.20
2023-04-22T16:37:27.159Z,23.19
2023-04-22T16:38:59.016Z,23.14
2023-04-22T16:40:31.637Z,23.08
2023-04-22T16:42:03.609Z,23.04
2023-04-22T16:43:35.483Z,22.97
2023-04-22T16:45:08.157Z,22.86
2023-04-22T16:46:40.358Z,22.76
2023-04-22T16:48:12.249Z,22.68
2023-04-22T16:49:44.182Z,22.58
2023-04-22T16:51:16.031Z,22.49
2023-04-22T16:52:47.955Z,22.39
2023-04-22T16:54:19.749Z,22.33
2023-04-22T16:55:51.621Z,22.18
2023-04-22T16:57:23.512Z,22.12
2023-04-22T16:58:55.359Z,22.02
2023-04-22T17:00:27.191Z,21.93
2023-04-22T17:01:59.083Z,21.84
2023-04-22T17:03:32.053Z,21.75
2023-04-22T17:05:04.680Z,21.64
2023-04-22T17:06:38.522Z,21.53
2023-04-22T17:08:11.627Z,21.44
2023-04-22T17:09:43.700Z,21.28
2023-04-22T17:11:16.103Z,21.21
2023-04-22T17:12:48.426Z,21.13
2023-04-22T17:14:20.285Z,21.01
2023-04-22T17:15:52.137Z,20.92
2023-04-22T17:17:23.969Z,20.80
2023-04-22T17:18:55.894Z,20.71
2023-04-22T17:20:27.699Z,20.58
2023-04-22T17:21:59.709Z,20.50
2023-04-22T17:23:31.685Z,20.39
2023-04-22T17:25:04.136Z,20.27
2023-04-22T17:26:37.302Z,20.16
2023-04-22T17:28:11.157Z,20.05
2023-04-22T17:29:43.140Z,19.92
2023-04-22T17:31:15.496Z,19.83
2023-04-22T17:32:47.545Z,19.72
2023-04-22T17:34:19.422Z,19.63
2023-04-22T17:35:51.256Z,19.53
2023-04-22T17:37:23.076Z,19.42
2023-04-22T17:38:55.055Z,19.29
2023-04-22T17:40:27.142Z,19.18
2023-04-22T17:41:58.954Z,19.09
2023-04-22T17:43:30.782Z,19.00
2023-04-22T17:45:02.741Z,18.90
2023-04-22T17:46:34.960Z,18.81
2023-04-22T17:48:06.943Z,18.70
2023-04-22T17:49:39.135Z,18.59
2023-04-22T17:51:11.715Z,18.50
2023-04-22T17:52:43.571Z,18.43
2023-04-22T17:54:15.510Z,18.32
2023-04-22T17:55:47.465Z,18.26
2023-04-22T17:57:19.356Z,18.19
2023-04-22T17:58:51.171Z,18.11
2023-04-22T18:00:23.192Z,18.02
2023-04-22T18:01:55.000Z,17.93
2023-04-22T18:03:27.949Z,17.83
2023-04-22T18:05:00.013Z,17.76
2023-04-22T18:06:32.592Z,17.68
2023-04-22T18:08:04.548Z,17.59
2023-04-22T18:09:36.392Z,17.48
2023-04-22T18:11:08.600Z,17.41
2023-04-22T18:12:41.071Z,17.33
2023-04-22T18:14:12.944Z,17.27
2023-04-22T18:15:44.794Z,17.16
2023-04-22T18:17:20.179Z,17.09
2023-04-22T18:18:52.002Z,17.00
2023-04-22T18:20:23.865Z,16.94
2023-04-22T18:22:00.131Z,16.86
2023-04-22T18:23:32.512Z,16.79
2023-04-22T18:25:04.628Z,16.69
2023-04-22T18:26:36.478Z,16.60
2023-04-22T18:28:08.297Z,16.52
2023-04-22T18:29:40.418Z,16.43
2023-04-22T18:31:12.534Z,16.36
2023-04-22T18:32:44.486Z,16.27
2023-04-22T18:34:16.416Z,16.17
2023-04-22T18:35:48.234Z,16.09
2023-04-22T18:37:20.247Z,16.00
2023-04-22T18:38:52.284Z,15.93
2023-04-22T18:40:24.146Z,15.86
2023-04-22T18:41:55.982Z,15.78
2023-04-22T18:43:27.865Z,15.71
2023-04-22T18:45:00.668Z,15.64
2023-04-22T18:46:33.871Z,15.59
2023-04-22T18:48:05.876Z,15.53
2023-04-22T18:49:37.702Z,15.47
2023-04-22T18:51:09.561Z,15.42
2023-04-22T18:52:42.678Z,15.40
2023-04-22T18:54:14.500Z,15.37
2023-04-22T18:55:46.361Z,15.36
2023-04-22T18:57:18.203Z,15.37
2023-04-22T18:58:50.213Z,15.37
2023-04-22T19:00:22.148Z,15.40
2023-04-22T19:01:54.032Z,15.41
2023-04-22T19:03:26.681Z,15.44
2023-04-22T19:04:59.415Z,15.47
2023-04-22T19:06:31.200Z,15.46
2023-04-22T19:08:02.998Z,15.50
2023-04-22T19:09:34.845Z,15.51
2023-04-22T19:11:06.729Z,15.56
2023-04-22T19:12:38.587Z,15.62
2023-04-22T19:14:10.846Z,15.66
2023-04-22T19:15:42.819Z,15.69
2023-04-22T19:17:14.638Z,15.74
2023-04-22T19:18:46.672Z,15.80
2023-04-22T19:20:18.554Z,15.85
2023-04-22T19:21:50.515Z,15.86
2023-04-22T19:23:22.466Z,15.90
2023-04-22T19:24:54.422Z,15.92
2023-04-22T19:26:27.853Z,15.94
2023-04-22T19:28:00.105Z,15.96
2023-04-22T19:29:31.923Z,15.99
2023-04-22T19:31:05.186Z,15.98
2023-04-22T19:32:37.047Z,15.98
2023-04-22T19:34:09.190Z,15.97
2023-04-22T19:35:41.098Z,15.98
2023-04-22T19:37:13.041Z,15.97
2023-04-22T19:38:45.023Z,15.97
2023-04-22T19:40:18.589Z,15.96
2023-04-22T19:41:51.420Z,15.93
2023-04-22T19:43:23.312Z,15.92
2023-04-22T19:44:56.174Z,15.89
2023-04-22T19:46:27.997Z,15.84
2023-04-22T19:48:00.086Z,15.84
2023-04-22T19:49:33.072Z,15.83
2023-04-22T19:51:05.723Z,15.80
2023-04-22T19:52:39.948Z,15.78
2023-04-22T19:54:13.214Z,15.74
2023-04-22T19:55:46.076Z,15.71
2023-04-22T19:57:18.018Z,15.67
2023-04-22T19:58:50.306Z,15.65
2023-04-22T20:00:22.532Z,15.60
2023-04-22T20:01:54.594Z,15.57
2023-04-22T20:03:27.445Z,15.54
2023-04-22T20:04:59.529Z,15.52
2023-04-22T20:06:32.732Z,15.50
2023-04-22T20:08:08.075Z,15.45
2023-04-22T20:09:40.764Z,15.43
2023-04-22T20:11:12.965Z,15.41
2023-04-22T20:12:46.298Z,15.38
2023-04-22T20:14:18.726Z,15.34
2023-04-22T20:15:50.988Z,15.31
2023-04-22T20:17:23.329Z,15.30